Archival Weather

Granbury Rgnl

Granbury, Texas (KGDJ)

Report from: Monday, January 29, 2024 9:35 PM UTC
Current time: Tuesday, June 18, 2024 1:32 PM UTC

Current weather – Weather history – Daily summaries
Weather forecast

Temperature22.0°C (71.6°F)
Dew point2.5°C (36.5°F)
Winds 5 kts (2.6 m/s, 5.8 mph) West (280°)
Visibility10 mi. (16.1 km)
Clouds Sky clear
Altimeter30.21 in.Hg (1023 mB)
Relative humidity28 %
Density altitude600 ft. (183 m)
Remarks Fully automated report
Automated weather observing station with precipitation discriminator
Flight conditions Visual Meteorological Conditions
Raw dataKGDJ 292135Z AUTO 28005KT 10SM CLR 22/03 A3021 RMK AO2 T02200025
An error has occurred. This application may no longer respond until reloaded. Reload 🗙